createdAt,value
2023-01-22T00:00:14.658Z,67.77
2023-01-22T00:11:02.513Z,67.67
2023-01-22T00:21:30.178Z,67.87
2023-01-22T00:31:57.783Z,68.34
2023-01-22T00:42:25.964Z,68.81
2023-01-22T00:52:53.628Z,68.56
2023-01-22T01:03:30.577Z,68.42
2023-01-22T01:13:58.163Z,68.47
2023-01-22T01:24:25.816Z,69.32
2023-01-22T01:34:53.360Z,69.10
2023-01-22T01:45:30.296Z,69.01
2023-01-22T01:56:00.002Z,68.92
2023-01-22T02:06:27.714Z,69.43
2023-01-22T02:17:07.435Z,69.07
2023-01-22T02:27:35.211Z,68.84
2023-01-22T02:38:02.765Z,69.63
2023-01-22T02:48:30.750Z,69.79
2023-01-22T02:58:58.370Z,69.94
2023-01-22T03:09:25.985Z,70.34
2023-01-22T03:20:11.100Z,70.65
2023-01-22T03:30:39.741Z,70.72
2023-01-22T03:41:09.206Z,70.93
2023-01-22T03:51:37.461Z,70.61
2023-01-22T04:02:05.061Z,70.95
2023-01-22T04:12:32.608Z,71.03
2023-01-22T04:23:00.266Z,71.17
2023-01-22T04:33:27.847Z,70.89
2023-01-22T04:43:55.481Z,71.10
2023-01-22T04:54:23.307Z,71.04
2023-01-22T05:04:50.813Z,70.90
2023-01-22T05:15:28.782Z,71.17
2023-01-22T05:25:56.729Z,70.88
2023-01-22T05:36:24.359Z,70.79
2023-01-22T05:46:51.861Z,70.99
2023-01-22T05:57:19.355Z,71.21
2023-01-22T06:07:46.861Z,71.45
2023-01-22T06:18:14.386Z,71.55
2023-01-22T06:28:41.935Z,71.78
2023-01-22T06:39:09.508Z,72.19
2023-01-22T06:49:37.064Z,72.33
2023-01-22T07:00:06.352Z,72.55
2023-01-22T07:10:34.002Z,72.81
2023-01-22T07:21:04.976Z,73.04
2023-01-22T07:31:32.574Z,73.30
2023-01-22T07:42:01.569Z,73.52
2023-01-22T07:52:29.267Z,73.74
2023-01-22T08:02:56.961Z,73.60
2023-01-22T08:13:24.611Z,73.85
2023-01-22T08:23:53.206Z,74.10
2023-01-22T08:34:20.928Z,73.65
2023-01-22T08:44:48.598Z,73.87
2023-01-22T08:55:16.166Z,73.93
2023-01-22T09:05:43.790Z,73.96
2023-01-22T09:16:11.907Z,74.11
2023-01-22T09:26:39.536Z,73.81
2023-01-22T09:37:07.993Z,74.13
2023-01-22T09:47:39.455Z,74.03
2023-01-22T09:58:15.298Z,73.45
2023-01-22T10:08:53.207Z,73.79
2023-01-22T10:19:24.910Z,73.61
2023-01-22T10:30:02.487Z,73.83
2023-01-22T10:40:35.111Z,73.43
2023-01-22T10:51:17.905Z,72.89
2023-01-22T11:01:45.585Z,73.58
2023-01-22T11:12:19.215Z,73.15
2023-01-22T11:22:55.909Z,72.81
2023-01-22T11:33:40.396Z,72.65
2023-01-22T11:44:30.923Z,72.27
2023-01-22T11:55:11.615Z,72.23
2023-01-22T12:05:47.497Z,72.13
2023-01-22T12:16:21.560Z,71.91
2023-01-22T12:26:55.700Z,72.38
2023-01-22T12:37:25.975Z,71.84
2023-01-22T12:48:00.136Z,71.67
2023-01-22T12:58:30.283Z,71.63
2023-01-22T13:08:58.194Z,71.74
2023-01-22T13:19:28.934Z,72.43
2023-01-22T13:30:09.439Z,72.62
2023-01-22T13:40:50.745Z,72.95
2023-01-22T13:51:21.850Z,72.37
2023-01-22T14:01:49.988Z,72.33
2023-01-22T14:12:19.550Z,72.43
2023-01-22T14:22:47.206Z,71.93
2023-01-22T14:33:25.057Z,72.36
2023-01-22T14:43:52.712Z,72.37
2023-01-22T14:54:20.477Z,72.42
2023-01-22T15:04:48.263Z,72.64
2023-01-22T15:15:16.083Z,72.49
2023-01-22T15:25:43.617Z,72.35
2023-01-22T15:36:11.943Z,72.40
2023-01-22T15:46:42.346Z,72.65
2023-01-22T15:57:09.908Z,72.69
2023-01-22T16:07:37.429Z,72.58
2023-01-22T16:18:05.574Z,72.14
2023-01-22T16:28:33.261Z,72.18
2023-01-22T16:39:01.139Z,71.89
2023-01-22T16:49:30.930Z,71.42
2023-01-22T16:59:58.477Z,71.46
2023-01-22T17:10:26.046Z,71.54
2023-01-22T17:21:01.925Z,71.38
2023-01-22T17:31:33.760Z,71.72
2023-01-22T17:42:01.429Z,71.59
2023-01-22T17:52:29.022Z,71.38
2023-01-22T18:02:56.692Z,71.00
2023-01-22T18:13:24.382Z,71.35
2023-01-22T18:23:52.983Z,70.83
2023-01-22T18:34:20.983Z,71.16
2023-01-22T18:44:48.856Z,71.30
2023-01-22T18:55:17.628Z,71.11
2023-01-22T19:05:45.279Z,70.99
2023-01-22T19:16:15.331Z,70.85
2023-01-22T19:26:46.134Z,70.84
2023-01-22T19:37:14.048Z,70.69
2023-01-22T19:47:41.618Z,70.41
2023-01-22T19:58:09.224Z,70.24
2023-01-22T20:08:37.120Z,70.18
2023-01-22T20:19:04.769Z,70.31
2023-01-22T20:29:32.380Z,70.35
2023-01-22T20:40:00.114Z,70.28
2023-01-22T20:50:27.680Z,70.33
2023-01-22T21:00:55.428Z,70.31
2023-01-22T21:11:24.122Z,70.27
2023-01-22T21:21:52.636Z,70.06
2023-01-22T21:32:20.452Z,70.09
2023-01-22T21:43:06.753Z,69.79
2023-01-22T21:53:34.354Z,69.52
2023-01-22T22:04:02.718Z,69.73
2023-01-22T22:14:30.973Z,69.94
2023-01-22T22:24:58.838Z,69.71
2023-01-22T22:35:26.378Z,69.68
2023-01-22T22:45:54.009Z,69.45
2023-01-22T22:56:22.416Z,69.85
2023-01-22T23:06:50.107Z,70.87
2023-01-22T23:17:17.612Z,71.04
2023-01-22T23:27:45.915Z,70.64
2023-01-22T23:38:13.411Z,70.57
2023-01-22T23:48:41.351Z,69.92
2023-01-22T23:59:08.881Z,70.55
